createdAt,value
2023-01-02T00:00:30.732Z,30.09
2023-01-02T00:01:30.673Z,28.64
2023-01-02T00:02:30.786Z,31.37
2023-01-02T00:03:30.818Z,29.14
2023-01-02T00:55:43.622Z,25.00
2023-01-02T00:56:44.586Z,25.00
2023-01-02T00:57:44.578Z,25.00
2023-01-02T00:58:44.570Z,25.00
2023-01-02T00:59:44.562Z,25.00
2023-01-02T01:00:44.580Z,25.00
2023-01-02T01:01:44.720Z,1.98
2023-01-02T01:02:44.617Z,0.00
2023-01-02T01:03:44.532Z,0.00
2023-01-02T01:04:44.522Z,0.53
2023-01-02T01:05:44.506Z,18.18
2023-01-02T01:06:44.498Z,26.15
2023-01-02T01:07:44.490Z,23.87
2023-01-02T01:08:44.481Z,25.00
2023-01-02T01:09:44.477Z,25.00
2023-01-02T01:10:44.466Z,26.11
2023-01-02T01:11:44.485Z,25.00
2023-01-02T01:12:44.444Z,25.00
2023-01-02T01:13:44.439Z,25.00
2023-01-02T01:14:44.428Z,25.00
2023-01-02T01:15:44.425Z,27.34
2023-01-02T01:16:44.433Z,25.59
2023-01-02T01:17:44.401Z,26.25
2023-01-02T01:18:44.399Z,28.30
2023-01-02T01:19:44.383Z,26.44
2023-01-02T01:20:44.377Z,25.00
2023-01-02T01:21:44.382Z,25.21
2023-01-02T01:22:44.353Z,25.00
2023-01-02T01:23:44.357Z,25.84
2023-01-02T01:24:44.341Z,26.21
2023-01-02T01:25:44.331Z,29.11
2023-01-02T01:26:44.324Z,28.34
2023-01-02T01:27:44.337Z,25.95
2023-01-02T01:28:44.314Z,27.42
2023-01-02T01:29:44.300Z,26.72
2023-01-02T01:30:44.287Z,28.34
2023-01-02T01:31:44.317Z,28.98
2023-01-02T01:32:44.274Z,27.94
2023-01-02T01:33:44.266Z,26.74
2023-01-02T01:34:44.253Z,30.79
2023-01-02T01:35:44.244Z,30.74
2023-01-02T01:36:44.241Z,29.14
2023-01-02T01:37:44.226Z,27.60
2023-01-02T01:38:44.220Z,28.83
2023-01-02T01:39:44.211Z,30.20
2023-01-02T01:40:44.201Z,30.27
2023-01-02T01:41:44.197Z,29.41
2023-01-02T01:42:44.183Z,25.65
2023-01-02T01:43:44.210Z,27.97
2023-01-02T01:44:44.168Z,26.35
2023-01-02T01:45:44.265Z,25.61
2023-01-02T01:46:44.152Z,25.16
2023-01-02T01:47:44.150Z,26.38
2023-01-02T01:48:44.140Z,26.82
2023-01-02T01:49:44.121Z,27.42
2023-01-02T01:50:44.111Z,27.71
2023-01-02T01:51:44.106Z,26.36
2023-01-02T01:52:44.098Z,29.03
2023-01-02T01:53:44.088Z,28.94
2023-01-02T01:54:44.081Z,27.43
2023-01-02T01:55:44.069Z,28.42
2023-01-02T01:56:44.058Z,29.14
2023-01-02T01:57:44.087Z,28.49
2023-01-02T01:58:44.046Z,28.47
2023-01-02T01:59:44.067Z,29.52
2023-01-02T02:00:44.067Z,28.56
2023-01-02T02:01:44.239Z,27.66
2023-01-02T02:02:44.106Z,27.10
2023-01-02T02:03:44.006Z,27.61
2023-01-02T02:04:44.001Z,28.57
2023-01-02T02:05:43.988Z,26.00
2023-01-02T02:06:43.980Z,30.68
2023-01-02T02:08:43.984Z,26.84
2023-01-02T02:09:43.949Z,28.72
2023-01-02T02:13:43.916Z,30.42
2023-01-02T04:08:42.925Z,31.90
2023-01-02T04:09:42.903Z,35.50
2023-01-02T04:10:42.901Z,36.45
2023-01-02T04:11:42.893Z,33.48
2023-01-02T04:12:42.878Z,34.03
2023-01-02T04:13:42.871Z,33.68
2023-01-02T04:14:42.862Z,34.50
2023-01-02T04:15:42.872Z,32.18
2023-01-02T04:16:42.844Z,33.95
2023-01-02T04:17:42.832Z,33.43
2023-01-02T04:18:46.565Z,33.06
2023-01-02T04:23:42.812Z,34.49
2023-01-02T05:18:42.316Z,32.69
2023-01-02T05:19:42.298Z,34.52
2023-01-02T05:20:42.291Z,34.60
2023-01-02T05:21:42.282Z,31.71
2023-01-02T05:22:42.271Z,30.72
2023-01-02T05:23:42.266Z,26.65
2023-01-02T05:24:42.254Z,33.13
2023-01-02T05:25:42.256Z,33.88
2023-01-02T05:26:42.235Z,31.31
2023-01-02T05:27:42.264Z,30.81
2023-01-02T05:28:42.219Z,31.19
2023-01-02T05:29:42.220Z,32.04
2023-01-02T05:30:42.199Z,32.14
2023-01-02T05:31:42.250Z,33.69
2023-01-02T05:32:42.193Z,33.78
2023-01-02T05:33:42.181Z,32.64
2023-01-02T22:46:33.149Z,37.15
2023-01-02T22:48:33.087Z,39.53
2023-01-02T22:49:33.079Z,36.63
2023-01-02T22:50:33.075Z,38.52
2023-01-02T22:52:33.052Z,40.42
2023-01-02T22:53:33.044Z,37.33
2023-01-02T22:54:33.046Z,39.20
2023-01-02T22:55:33.031Z,39.43
2023-01-02T22:56:33.015Z,38.03
2023-01-02T22:57:33.009Z,38.86
2023-01-02T22:58:33.005Z,38.90
2023-01-02T22:59:33.028Z,34.09
2023-01-02T23:00:32.986Z,36.38
2023-01-02T23:01:33.025Z,38.43
2023-01-02T23:02:32.969Z,36.64
2023-01-02T23:03:32.986Z,36.25
2023-01-02T23:04:33.025Z,37.41
2023-01-02T23:05:32.941Z,38.09
2023-01-02T23:06:35.496Z,38.52
2023-01-02T23:07:32.923Z,38.81
2023-01-02T23:08:32.960Z,38.83
2023-01-02T23:09:32.905Z,39.29
2023-01-02T23:10:32.899Z,37.33
2023-01-02T23:11:32.886Z,39.45
2023-01-02T23:13:32.887Z,35.55
2023-01-02T23:14:32.865Z,38.13
2023-01-02T23:15:32.857Z,35.71
2023-01-02T23:16:32.942Z,35.88
2023-01-02T23:17:32.836Z,36.18
2023-01-02T23:18:32.828Z,36.83
2023-01-02T23:19:32.842Z,36.40
2023-01-02T23:20:32.816Z,36.27
2023-01-02T23:21:32.805Z,35.48
2023-01-02T23:22:32.788Z,34.69
2023-01-02T23:23:32.779Z,37.98
2023-01-02T23:24:32.772Z,34.92
2023-01-02T23:25:32.780Z,36.90
2023-01-02T23:26:32.770Z,35.81
2023-01-02T23:27:32.753Z,36.33
2023-01-02T23:29:05.157Z,36.19
2023-01-02T23:29:32.733Z,36.55
2023-01-02T23:30:32.716Z,37.18
2023-01-02T23:31:32.796Z,37.10
2023-01-02T23:32:32.705Z,37.58
2023-01-02T23:33:32.694Z,38.94
2023-01-02T23:34:32.708Z,36.66
2023-01-02T23:35:32.710Z,37.11
2023-01-02T23:36:32.675Z,37.86
2023-01-02T23:37:32.656Z,35.17
2023-01-02T23:38:32.653Z,33.94
2023-01-02T23:39:32.643Z,35.27
2023-01-02T23:40:34.404Z,35.66
2023-01-02T23:41:32.629Z,35.88
2023-01-02T23:42:32.629Z,36.23
2023-01-02T23:43:32.606Z,35.48
2023-01-02T23:44:32.608Z,37.33
2023-01-02T23:45:32.628Z,35.84
2023-01-02T23:46:32.585Z,38.66
2023-01-02T23:47:32.573Z,37.87
2023-01-02T23:48:32.565Z,37.21
2023-01-02T23:49:32.555Z,33.12
2023-01-02T23:50:32.543Z,34.92
2023-01-02T23:51:32.564Z,34.05
2023-01-02T23:52:32.529Z,35.26
2023-01-02T23:53:32.525Z,32.20
2023-01-02T23:54:32.528Z,34.38
2023-01-02T23:55:32.499Z,35.23
2023-01-02T23:56:32.488Z,34.24
2023-01-02T23:57:32.487Z,33.04
2023-01-02T23:58:32.476Z,33.69
2023-01-02T23:59:32.465Z,34.01
